createdAt,value
2023-04-28T00:00:07.893Z,3.35
2023-04-28T00:02:35.475Z,5.53
2023-04-28T00:05:03.785Z,4.57
2023-04-28T00:07:31.809Z,2.67
2023-04-28T00:09:59.658Z,3.38
2023-04-28T00:12:27.239Z,3.80
2023-04-28T00:14:54.826Z,2.92
2023-04-28T00:17:22.382Z,2.08
2023-04-28T00:19:50.701Z,3.47
2023-04-28T00:22:18.724Z,5.40
2023-04-28T00:24:46.498Z,4.90
2023-04-28T00:27:13.990Z,2.67
2023-04-28T00:29:41.566Z,4.53
2023-04-28T00:32:09.374Z,4.10
2023-04-28T00:34:37.538Z,3.75
2023-04-28T00:37:05.268Z,5.68
2023-04-28T00:39:32.850Z,2.95
2023-04-28T00:42:00.383Z,5.32
2023-04-28T00:44:27.997Z,3.45
2023-04-28T00:46:56.246Z,2.92
2023-04-28T00:49:23.842Z,2.47
2023-04-28T00:51:52.457Z,1.65
2023-04-28T00:54:20.013Z,2.10
2023-04-28T00:56:49.151Z,2.17
2023-04-28T00:59:16.907Z,1.40
2023-04-28T01:01:44.591Z,1.65
2023-04-28T01:04:12.480Z,3.45
2023-04-28T01:06:43.852Z,2.88
2023-04-28T01:09:11.383Z,3.95
2023-04-28T01:11:39.429Z,5.88
2023-04-28T01:14:18.411Z,3.45
2023-04-28T01:16:47.464Z,2.60
2023-04-28T01:19:24.358Z,2.65
2023-04-28T01:21:53.514Z,2.90
2023-04-28T01:24:22.612Z,2.83
2023-04-28T01:26:51.172Z,3.78
2023-04-28T01:29:18.890Z,2.08
2023-04-28T01:31:46.515Z,2.63
2023-04-28T01:34:14.422Z,5.93
2023-04-28T01:36:43.105Z,6.18
2023-04-28T01:39:11.680Z,2.90
2023-04-28T01:41:41.517Z,2.50
2023-04-28T01:44:09.166Z,2.15
2023-04-28T01:46:36.961Z,3.67
2023-04-28T01:49:04.864Z,3.90
2023-04-28T01:51:32.874Z,5.25
2023-04-28T01:54:01.868Z,2.20
2023-04-28T01:56:30.512Z,2.55
2023-04-28T01:58:59.348Z,3.22
2023-04-28T02:01:27.106Z,2.75
2023-04-28T02:03:55.870Z,2.35
2023-04-28T02:06:24.560Z,2.45
2023-04-28T02:08:52.128Z,4.88
2023-04-28T02:11:19.829Z,2.28
2023-04-28T02:13:47.569Z,3.03
2023-04-28T02:16:15.332Z,3.42
2023-04-28T02:18:43.410Z,2.55
2023-04-28T02:21:12.383Z,5.68
2023-04-28T02:23:41.120Z,4.03
2023-04-28T02:26:08.723Z,4.45
2023-04-28T02:28:37.071Z,5.18
2023-04-28T02:31:11.368Z,4.32
2023-04-28T02:33:39.199Z,3.75
2023-04-28T02:36:07.771Z,2.58
2023-04-28T02:38:35.557Z,3.28
2023-04-28T02:41:05.317Z,2.83
2023-04-28T02:43:33.849Z,3.72
2023-04-28T02:46:04.262Z,2.22
2023-04-28T02:48:33.119Z,2.38
2023-04-28T02:51:00.674Z,4.40
2023-04-28T02:53:28.665Z,2.88
2023-04-28T02:55:56.318Z,2.97
2023-04-28T02:58:23.857Z,2.53
2023-04-28T03:00:51.499Z,2.15
2023-04-28T03:03:19.277Z,3.90
2023-04-28T03:05:47.153Z,3.88
2023-04-28T03:08:15.104Z,3.72
2023-04-28T03:10:43.665Z,3.75
2023-04-28T03:28:24.011Z,4.40
2023-04-28T03:30:51.981Z,2.42
2023-04-28T03:33:20.296Z,3.55
2023-04-28T03:35:48.305Z,2.30
2023-04-28T03:38:16.490Z,6.30
2023-04-28T03:40:44.283Z,3.40
2023-04-28T03:43:11.989Z,4.38
2023-04-28T03:45:45.990Z,4.40
2023-04-28T03:48:13.655Z,2.95
2023-04-28T03:50:42.545Z,5.28
2023-04-28T03:53:10.294Z,5.53
2023-04-28T03:55:39.003Z,3.00
2023-04-28T03:58:06.545Z,2.65
2023-04-28T04:00:35.319Z,3.13
2023-04-28T04:03:03.089Z,3.05
2023-04-28T04:05:31.019Z,5.35
2023-04-28T04:07:58.706Z,2.33
2023-04-28T04:10:26.277Z,3.20
2023-04-28T04:12:54.058Z,5.45
2023-04-28T04:15:21.609Z,2.92
2023-04-28T04:17:49.808Z,3.15
2023-04-28T04:20:17.743Z,3.88
2023-04-28T04:22:47.037Z,4.38
2023-04-28T04:25:15.711Z,6.00
2023-04-28T04:27:45.074Z,4.95
2023-04-28T04:30:12.909Z,4.68
2023-04-28T04:32:40.563Z,2.17
2023-04-28T04:35:09.872Z,4.57
2023-04-28T04:37:37.908Z,4.43
2023-04-28T04:40:08.956Z,3.05
2023-04-28T04:42:43.433Z,8.30
2023-04-28T04:45:18.293Z,4.35
2023-04-28T04:47:46.075Z,5.68
2023-04-28T04:50:14.176Z,3.00
2023-04-28T04:52:41.806Z,3.72
2023-04-28T04:55:11.348Z,4.32
2023-04-28T04:57:41.556Z,3.45
2023-04-28T05:00:21.114Z,3.30
2023-04-28T05:02:49.006Z,4.78
2023-04-28T05:05:21.740Z,3.65
2023-04-28T05:08:06.047Z,6.95
2023-04-28T05:10:34.481Z,9.30
2023-04-28T05:13:03.909Z,7.95
2023-04-28T05:15:31.645Z,5.53
2023-04-28T05:18:19.182Z,6.57
2023-04-28T05:20:46.732Z,4.32
2023-04-28T05:23:15.625Z,2.78
2023-04-28T05:25:43.349Z,5.13
2023-04-28T05:28:11.264Z,4.55
2023-04-28T05:30:39.029Z,2.95
2023-04-28T05:33:06.734Z,6.38
2023-04-28T05:35:34.622Z,6.10
2023-04-28T05:38:02.647Z,2.78
2023-04-28T05:40:30.500Z,6.35
2023-04-28T05:42:58.126Z,6.35
2023-04-28T05:45:25.933Z,4.32
2023-04-28T05:47:55.067Z,3.92
2023-04-28T05:50:23.304Z,4.82
2023-04-28T05:52:51.716Z,2.50
2023-04-28T05:55:19.484Z,3.70
2023-04-28T05:57:53.151Z,2.65
2023-04-28T06:00:22.149Z,2.60
2023-04-28T06:02:50.726Z,4.63
2023-04-28T06:05:18.717Z,3.53
2023-04-28T06:07:50.062Z,3.70
2023-04-28T06:10:18.835Z,6.93
2023-04-28T06:12:46.385Z,3.20
2023-04-28T06:15:14.583Z,6.53
2023-04-28T06:17:42.807Z,3.97
2023-04-28T06:20:13.290Z,3.67
2023-04-28T06:22:41.632Z,3.72
2023-04-28T06:25:09.741Z,3.28
2023-04-28T06:27:44.865Z,4.70
2023-04-28T06:30:24.646Z,5.22
2023-04-28T06:32:52.577Z,3.65
2023-04-28T06:35:20.333Z,6.55
2023-04-28T06:37:47.893Z,4.10
2023-04-28T06:40:16.105Z,3.85
2023-04-28T06:42:50.543Z,4.93
2023-04-28T06:45:24.270Z,5.22
2023-04-28T06:47:53.126Z,5.80
2023-04-28T06:50:20.837Z,5.60
2023-04-28T06:52:48.494Z,4.22
2023-04-28T06:55:19.907Z,6.25
2023-04-28T06:57:47.554Z,7.38
2023-04-28T07:00:16.152Z,5.32
2023-04-28T07:02:44.070Z,4.38
2023-04-28T07:05:13.081Z,4.95
2023-04-28T07:07:42.066Z,5.90
2023-04-28T07:10:10.854Z,4.13
2023-04-28T07:12:38.643Z,4.93
2023-04-28T07:15:07.515Z,3.90
2023-04-28T07:17:36.012Z,4.35
2023-04-28T07:20:05.367Z,5.22
2023-04-28T07:22:33.134Z,5.35
2023-04-28T07:25:00.810Z,5.43
2023-04-28T07:27:28.430Z,5.15
2023-04-28T07:29:56.077Z,4.15
2023-04-28T07:32:24.372Z,6.20
2023-04-28T07:34:52.097Z,5.00
2023-04-28T07:37:19.790Z,4.53
2023-04-28T07:39:47.763Z,4.75
2023-04-28T07:42:15.378Z,5.13
2023-04-28T07:44:42.952Z,4.95
2023-04-28T07:47:11.097Z,5.45
2023-04-28T07:49:38.967Z,7.28
2023-04-28T07:52:06.847Z,5.63
2023-04-28T07:54:36.903Z,3.60
2023-04-28T07:57:06.245Z,4.15
2023-04-28T07:59:35.011Z,4.07
2023-04-28T08:02:02.738Z,5.43
2023-04-28T08:04:32.403Z,4.13
2023-04-28T08:07:00.862Z,3.17
2023-04-28T08:09:28.491Z,3.60
2023-04-28T08:11:56.281Z,6.68
2023-04-28T08:14:23.890Z,3.00
2023-04-28T08:16:52.103Z,4.85
2023-04-28T08:19:20.207Z,2.97
2023-04-28T08:21:48.426Z,4.57
2023-04-28T08:24:16.256Z,4.65
2023-04-28T08:26:44.231Z,4.57
2023-04-28T08:29:12.564Z,4.82
2023-04-28T08:31:40.394Z,24.45
2023-04-28T08:34:08.156Z,12.43
2023-04-28T08:36:35.792Z,15.85
2023-04-28T08:39:04.282Z,7.60
2023-04-28T08:41:33.242Z,4.65
2023-04-28T08:44:00.939Z,5.32
2023-04-28T08:46:29.297Z,3.70
2023-04-28T08:49:01.906Z,4.13
2023-04-28T08:51:44.517Z,3.05
2023-04-28T08:54:26.205Z,3.53
2023-04-28T08:56:57.094Z,5.15
2023-04-28T08:59:25.044Z,3.92
2023-04-28T09:01:52.724Z,3.78
2023-04-28T09:04:21.456Z,4.55
2023-04-28T09:06:49.678Z,3.40
2023-04-28T09:09:31.711Z,6.88
2023-04-28T09:12:04.108Z,4.47
2023-04-28T09:14:34.597Z,3.95
2023-04-28T09:17:03.651Z,4.10
2023-04-28T09:19:36.360Z,3.65
2023-04-28T09:22:17.726Z,3.53
2023-04-28T09:24:53.474Z,4.05
2023-04-28T09:27:28.306Z,3.92
2023-04-28T09:29:56.377Z,4.15
2023-04-28T09:32:28.184Z,5.55
2023-04-28T09:34:59.893Z,7.13
2023-04-28T09:37:31.900Z,5.33
2023-04-28T09:40:08.777Z,4.43
2023-04-28T09:42:43.081Z,3.28
2023-04-28T09:45:15.607Z,2.30
2023-04-28T09:47:46.334Z,3.00
2023-04-28T09:50:17.523Z,5.65
2023-04-28T09:52:57.333Z,3.67
2023-04-28T09:55:25.841Z,2.60
2023-04-28T09:57:55.125Z,5.47
2023-04-28T10:00:23.917Z,3.38
2023-04-28T10:02:52.812Z,4.60
2023-04-28T10:05:22.228Z,3.47
2023-04-28T10:07:50.353Z,4.40
2023-04-28T10:10:18.753Z,2.88
2023-04-28T10:12:46.745Z,5.55
2023-04-28T10:15:14.502Z,4.35
2023-04-28T10:17:42.394Z,3.28
2023-04-28T10:20:11.195Z,6.28
2023-04-28T10:23:16.659Z,2.85
2023-04-28T10:25:49.613Z,4.95
2023-04-28T10:28:18.341Z,4.82
2023-04-28T10:31:12.758Z,5.55
2023-04-28T10:33:41.927Z,4.50
2023-04-28T10:36:09.926Z,8.40
2023-04-28T10:39:11.167Z,5.25
2023-04-28T10:41:39.104Z,4.07
2023-04-28T10:44:28.917Z,3.15
2023-04-28T10:47:10.736Z,4.93
2023-04-28T10:49:59.628Z,7.43
2023-04-28T10:52:33.357Z,4.18
2023-04-28T10:55:33.789Z,3.90
2023-04-28T10:58:17.446Z,5.20
2023-04-28T11:00:47.789Z,4.43
2023-04-28T11:03:51.162Z,8.80
2023-04-28T11:06:29.357Z,4.10
2023-04-28T11:08:58.149Z,3.50
2023-04-28T11:11:26.753Z,3.25
2023-04-28T11:13:56.746Z,8.27
2023-04-28T11:16:26.125Z,4.88
2023-04-28T11:19:15.237Z,4.35
2023-04-28T11:21:43.434Z,3.70
2023-04-28T11:24:11.617Z,4.55
2023-04-28T11:26:39.638Z,4.05
2023-04-28T11:29:07.758Z,5.47
2023-04-28T11:31:35.492Z,3.15
2023-04-28T11:34:08.010Z,5.35
2023-04-28T11:36:37.846Z,7.65
2023-04-28T11:39:10.674Z,6.90
2023-04-28T11:41:43.528Z,5.38
2023-04-28T11:44:16.532Z,7.70
2023-04-28T11:46:53.825Z,4.45
2023-04-28T11:49:24.735Z,4.90
2023-04-28T11:51:52.869Z,5.05
2023-04-28T11:54:28.909Z,6.35
2023-04-28T11:56:58.407Z,7.00
2023-04-28T11:59:31.315Z,7.18
2023-04-28T12:02:01.821Z,5.38
2023-04-28T12:04:38.027Z,5.75
2023-04-28T12:07:17.033Z,4.82
2023-04-28T12:09:49.050Z,5.65
2023-04-28T12:12:45.282Z,3.70
2023-04-28T12:15:18.831Z,4.55
2023-04-28T12:17:48.687Z,4.85
2023-04-28T12:20:39.456Z,4.88
2023-04-28T12:23:08.728Z,4.50
2023-04-28T12:25:47.409Z,6.55
2023-04-28T12:28:15.470Z,5.35
2023-04-28T12:30:43.675Z,7.00
2023-04-28T12:33:25.245Z,4.40
2023-04-28T12:35:55.433Z,4.53
2023-04-28T12:38:24.400Z,5.43
2023-04-28T12:40:52.605Z,12.40
2023-04-28T12:43:23.289Z,16.05
2023-04-28T12:45:53.526Z,8.13
2023-04-28T12:48:24.159Z,9.55
2023-04-28T12:50:52.419Z,11.35
2023-04-28T12:53:20.223Z,18.50
2023-04-28T12:55:47.940Z,9.23
2023-04-28T12:58:15.978Z,10.57
2023-04-28T13:00:43.707Z,7.32
2023-04-28T13:03:11.583Z,5.68
2023-04-28T13:05:39.589Z,6.35
2023-04-28T13:08:07.194Z,6.78
2023-04-28T13:10:34.739Z,4.70
2023-04-28T13:13:02.279Z,5.82
2023-04-28T13:15:31.034Z,6.15
2023-04-28T13:17:59.863Z,6.78
2023-04-28T13:20:27.561Z,5.93
2023-04-28T13:22:55.099Z,3.63
2023-04-28T13:25:22.773Z,3.38
2023-04-28T13:27:50.360Z,4.95
2023-04-28T13:30:17.988Z,6.13
2023-04-28T13:32:45.642Z,5.90
2023-04-28T13:35:13.254Z,7.10
2023-04-28T13:37:45.815Z,4.88
2023-04-28T13:40:13.703Z,5.80
2023-04-28T13:42:41.338Z,6.15
2023-04-28T13:45:09.229Z,7.53
2023-04-28T13:47:36.858Z,5.40
2023-04-28T13:50:04.698Z,6.72
2023-04-28T13:52:32.537Z,5.35
2023-04-28T13:55:00.129Z,4.10
2023-04-28T13:57:27.804Z,6.38
2023-04-28T13:59:55.535Z,5.53
2023-04-28T14:02:24.719Z,6.05
2023-04-28T14:04:53.843Z,3.83
2023-04-28T14:07:21.562Z,5.65
2023-04-28T14:09:50.145Z,5.63
2023-04-28T14:12:17.708Z,5.57
2023-04-28T14:14:48.703Z,4.40
2023-04-28T14:17:16.455Z,4.88
2023-04-28T14:19:44.719Z,7.60
2023-04-28T14:22:12.519Z,5.18
2023-04-28T14:24:40.077Z,4.82
2023-04-28T14:27:08.548Z,8.00
2023-04-28T14:29:36.193Z,5.68
2023-04-28T14:32:03.790Z,8.13
2023-04-28T14:34:31.770Z,3.05
2023-04-28T14:36:59.540Z,6.00
2023-04-28T14:39:27.126Z,7.63
2023-04-28T14:41:54.734Z,4.55
2023-04-28T14:44:22.373Z,4.47
2023-04-28T14:46:50.446Z,5.05
2023-04-28T14:49:18.115Z,8.30
2023-04-28T14:51:46.697Z,3.97
2023-04-28T14:54:14.277Z,7.90
2023-04-28T14:56:41.897Z,3.40
2023-04-28T14:59:10.632Z,5.63
2023-04-28T15:01:38.298Z,4.80
2023-04-28T15:04:06.160Z,4.93
2023-04-28T15:06:34.256Z,6.22
2023-04-28T15:09:01.858Z,7.38
2023-04-28T15:11:29.590Z,7.20
2023-04-28T15:13:57.238Z,10.48
2023-04-28T15:16:24.946Z,12.70
2023-04-28T15:18:52.623Z,10.38
2023-04-28T15:21:20.585Z,12.52
2023-04-28T15:23:48.413Z,9.85
2023-04-28T15:26:15.999Z,5.82
2023-04-28T15:28:43.567Z,6.43
2023-04-28T15:31:11.257Z,20.45
2023-04-28T15:33:39.409Z,27.38
2023-04-28T15:36:08.613Z,13.68
2023-04-28T15:38:36.575Z,4.90
2023-04-28T15:41:04.361Z,8.90
2023-04-28T15:43:32.001Z,12.88
2023-04-28T15:46:01.038Z,15.55
2023-04-28T15:48:28.649Z,8.43
2023-04-28T15:50:56.368Z,6.13
2023-04-28T15:53:24.951Z,7.20
2023-04-28T15:55:52.642Z,9.02
2023-04-28T15:58:20.472Z,6.07
2023-04-28T16:00:48.679Z,6.05
2023-04-28T16:03:16.951Z,5.68
2023-04-28T16:05:45.721Z,3.85
2023-04-28T16:08:14.390Z,4.03
2023-04-28T16:10:42.569Z,5.28
2023-04-28T16:13:13.039Z,4.30
2023-04-28T16:15:41.982Z,4.18
2023-04-28T16:18:10.257Z,6.35
2023-04-28T16:20:38.252Z,8.65
2023-04-28T16:23:07.409Z,5.70
2023-04-28T16:25:36.007Z,6.35
2023-04-28T16:28:04.065Z,7.32
2023-04-28T16:30:32.882Z,6.50
2023-04-28T16:33:00.542Z,5.10
2023-04-28T16:35:28.372Z,8.75
2023-04-28T16:37:56.126Z,4.97
2023-04-28T16:40:24.023Z,5.22
2023-04-28T16:42:51.682Z,8.80
2023-04-28T16:45:19.480Z,4.13
2023-04-28T16:47:47.249Z,3.80
2023-04-28T16:50:15.254Z,4.30
2023-04-28T16:52:42.935Z,5.93
2023-04-28T16:55:10.936Z,8.82
2023-04-28T16:57:38.551Z,7.53
2023-04-28T17:00:06.820Z,5.72
2023-04-28T17:02:34.735Z,9.10
2023-04-28T17:05:02.611Z,6.57
2023-04-28T17:07:30.215Z,5.40
2023-04-28T17:09:57.955Z,4.93
2023-04-28T17:12:25.704Z,17.90
2023-04-28T17:14:54.458Z,46.88
2023-04-28T17:17:22.249Z,70.05
2023-04-28T17:19:50.200Z,39.47
2023-04-28T17:22:17.995Z,27.70
2023-04-28T17:24:45.680Z,23.15
2023-04-28T17:27:14.774Z,13.77
2023-04-28T17:29:43.425Z,10.98
2023-04-28T17:32:11.250Z,7.85
2023-04-28T17:34:38.898Z,12.27
2023-04-28T17:37:06.901Z,5.38
2023-04-28T17:39:34.689Z,8.45
2023-04-28T17:42:02.730Z,9.32
2023-04-28T17:44:30.752Z,34.83
2023-04-28T17:46:58.697Z,11.02
2023-04-28T17:49:26.933Z,10.73
2023-04-28T17:51:55.071Z,13.23
2023-04-28T17:54:23.191Z,13.82
2023-04-28T17:56:51.907Z,24.67
2023-04-28T17:59:19.806Z,48.63
2023-04-28T18:01:48.189Z,86.25
2023-04-28T18:04:15.837Z,36.65
2023-04-28T18:06:44.586Z,7.25
2023-04-28T18:09:12.594Z,10.40
2023-04-28T18:11:40.632Z,7.13
2023-04-28T18:14:09.078Z,4.50
2023-04-28T18:16:37.283Z,4.20
2023-04-28T18:19:04.924Z,2.78
2023-04-28T18:21:34.335Z,4.30
2023-04-28T18:24:02.874Z,10.27
2023-04-28T18:26:30.862Z,4.80
2023-04-28T18:28:58.818Z,3.42
2023-04-28T18:31:27.446Z,3.45
2023-04-28T18:33:55.647Z,6.63
2023-04-28T18:36:24.339Z,7.65
2023-04-28T18:38:52.666Z,8.93
2023-04-28T18:41:22.053Z,13.55
2023-04-28T18:43:50.552Z,14.68
2023-04-28T18:46:18.618Z,8.40
2023-04-28T18:48:49.280Z,12.25
2023-04-28T18:51:17.945Z,16.58
2023-04-28T18:53:46.389Z,20.90
2023-04-28T18:56:14.816Z,22.17
2023-04-28T18:58:43.389Z,23.75
2023-04-28T19:01:18.855Z,12.75
2023-04-28T19:03:47.853Z,7.95
2023-04-28T19:06:18.136Z,8.00
2023-04-28T19:08:46.789Z,8.43
2023-04-28T19:11:14.960Z,7.20
2023-04-28T19:13:45.360Z,7.18
2023-04-28T19:16:13.809Z,8.45
2023-04-28T19:18:43.657Z,9.38
2023-04-28T19:21:14.464Z,5.22
2023-04-28T19:23:43.970Z,6.90
2023-04-28T19:26:12.850Z,5.90
2023-04-28T19:28:40.837Z,5.75
2023-04-28T19:31:09.791Z,7.50
2023-04-28T19:33:38.424Z,8.38
2023-04-28T19:36:10.463Z,4.75
2023-04-28T19:38:40.534Z,5.85
2023-04-28T19:41:09.060Z,8.80
2023-04-28T19:43:37.938Z,8.35
2023-04-28T19:46:06.985Z,6.25
2023-04-28T19:48:35.451Z,9.90
2023-04-28T19:51:03.876Z,10.02
2023-04-28T19:53:32.279Z,8.65
2023-04-28T19:56:02.107Z,13.70
2023-04-28T19:58:31.451Z,14.93
2023-04-28T20:00:59.821Z,5.97
2023-04-28T20:03:29.767Z,7.13
2023-04-28T20:05:58.389Z,9.50
2023-04-28T20:08:28.467Z,8.63
2023-04-28T20:10:57.364Z,8.68
2023-04-28T20:13:27.284Z,13.30
2023-04-28T20:15:56.361Z,8.55
2023-04-28T20:18:25.781Z,6.38
2023-04-28T20:20:54.035Z,7.78
2023-04-28T20:23:22.075Z,9.93
2023-04-28T20:25:50.521Z,14.00
2023-04-28T20:28:18.725Z,8.48
2023-04-28T20:30:47.176Z,9.73
2023-04-28T20:33:16.474Z,8.27
2023-04-28T20:35:45.254Z,10.07
2023-04-28T20:38:13.136Z,16.02
2023-04-28T20:40:41.131Z,13.40
2023-04-28T20:43:09.024Z,12.68
2023-04-28T20:45:36.706Z,13.13
2023-04-28T20:48:04.558Z,17.70
2023-04-28T20:50:34.091Z,11.02
2023-04-28T20:53:01.881Z,15.57
2023-04-28T20:55:29.547Z,12.00
2023-04-28T20:57:57.255Z,12.90
2023-04-28T21:00:24.843Z,10.30
2023-04-28T21:02:52.701Z,8.32
2023-04-28T21:05:21.064Z,9.82
2023-04-28T21:07:48.895Z,8.57
2023-04-28T21:10:16.893Z,10.13
2023-04-28T21:12:45.558Z,11.60
2023-04-28T21:15:13.568Z,12.10
2023-04-28T21:17:41.274Z,15.07
2023-04-28T21:20:09.989Z,13.07
2023-04-28T21:22:37.697Z,12.10
2023-04-28T21:25:07.126Z,13.80
2023-04-28T21:27:34.789Z,13.95
2023-04-28T21:30:02.598Z,12.77
2023-04-28T21:32:30.853Z,12.48
2023-04-28T21:34:58.946Z,13.60
2023-04-28T21:37:26.927Z,9.55
2023-04-28T21:39:56.401Z,8.73
2023-04-28T21:42:24.324Z,10.70
2023-04-28T21:44:52.135Z,10.18
2023-04-28T21:47:19.819Z,7.10
2023-04-28T21:49:48.009Z,11.75
2023-04-28T21:52:16.458Z,10.32
2023-04-28T21:54:44.071Z,9.50
2023-04-28T21:57:11.770Z,9.98
2023-04-28T21:59:39.424Z,9.68
2023-04-28T22:02:07.402Z,8.48
2023-04-28T22:04:35.672Z,9.65
2023-04-28T22:07:04.106Z,9.00
2023-04-28T22:09:33.328Z,9.15
2023-04-28T22:12:00.865Z,7.45
2023-04-28T22:14:40.339Z,7.05
2023-04-28T22:17:09.805Z,8.50
2023-04-28T22:19:37.639Z,10.15
2023-04-28T22:22:05.613Z,9.18
2023-04-28T22:24:33.243Z,12.57
2023-04-28T22:27:00.924Z,7.57
2023-04-28T22:29:28.757Z,10.30
2023-04-28T22:31:56.440Z,9.82
2023-04-28T22:34:24.220Z,10.80
2023-04-28T22:36:51.830Z,11.77
2023-04-28T22:39:19.570Z,8.65
2023-04-28T22:41:47.214Z,10.90
2023-04-28T22:44:14.806Z,9.38
2023-04-28T22:46:42.605Z,12.70
2023-04-28T22:49:10.284Z,10.75
2023-04-28T22:51:38.074Z,12.82
2023-04-28T22:54:05.904Z,9.13
2023-04-28T22:56:33.521Z,10.60
2023-04-28T22:59:01.251Z,12.23
2023-04-28T23:01:29.141Z,14.75
2023-04-28T23:03:56.943Z,10.27
2023-04-28T23:06:25.053Z,11.70
2023-04-28T23:08:52.619Z,9.98
2023-04-28T23:11:20.270Z,10.70
2023-04-28T23:13:47.868Z,8.55
2023-04-28T23:16:15.856Z,11.43
2023-04-28T23:18:43.783Z,9.25
2023-04-28T23:21:13.998Z,9.48
2023-04-28T23:23:41.627Z,9.73
2023-04-28T23:26:09.182Z,12.20
2023-04-28T23:28:37.019Z,9.80
2023-04-28T23:31:05.129Z,8.30
2023-04-28T23:33:32.818Z,9.30
2023-04-28T23:36:00.392Z,10.85
2023-04-28T23:38:28.169Z,8.05
2023-04-28T23:40:55.787Z,7.97
2023-04-28T23:43:23.512Z,8.68
2023-04-28T23:45:51.613Z,9.88
2023-04-28T23:48:19.158Z,7.30
2023-04-28T23:50:47.020Z,7.80
2023-04-28T23:53:14.915Z,11.68
2023-04-28T23:55:42.677Z,9.40
2023-04-28T23:58:10.344Z,11.93
